Terminal Aerodrome Forecast
Issued by NWS

Home | Current Version | Previous Version | Text Only | Print | Product List | Glossary On
Versions: 1 2 3 4 5 6 7 8 9 10 11 12 13 14 15 16 17 18 19 20 21 22 23 24 25 26 27 28 29 30 31 32 33 34 35 36 37 38 39
287
FTUS45 KBOU 280540
TAFBJC
TAF
KBJC 280540Z 2806/2906 VRB04KT P6SM FEW110 BKN200
     FM281800 03008KT P6SM FEW090 SCT140
     FM282200 10008KT P6SM FEW090 SCT140 BKN200 PROB30 2823/2903
      VRB15G30KT -TSRA BKN070CB
     FM290300 23010KT P6SM SCT090 BKN140=

USA.gov is the U.S. government's official web portal to all federal, state and local government web resources and services.